sensor_id;sensor_type;location;lat;lon;timestamp;P1;durP1;ratioP1;P2;durP2;ratioP2
56399;SDS011;42298;53.638;9.876;2022-07-25T00:02:24;12.63;;;8.73;;
56399;SDS011;42298;53.638;9.876;2022-07-25T00:04:50;12.65;;;8.63;;
56399;SDS011;42298;53.638;9.876;2022-07-25T00:07:15;12.75;;;8.75;;
56399;SDS011;42298;53.638;9.876;2022-07-25T00:09:41;12.85;;;9.10;;
56399;SDS011;42298;53.638;9.876;2022-07-25T00:12:06;14.02;;;8.88;;
56399;SDS011;42298;53.638;9.876;2022-07-25T00:14:31;13.20;;;9.02;;
56399;SDS011;42298;53.638;9.876;2022-07-25T00:16:57;12.82;;;9.25;;
56399;SDS011;42298;53.638;9.876;2022-07-25T00:19:22;11.85;;;8.85;;
56399;SDS011;42298;53.638;9.876;2022-07-25T00:21:47;14.65;;;9.50;;
56399;SDS011;42298;53.638;9.876;2022-07-25T00:24:13;13.75;;;9.43;;
56399;SDS011;42298;53.638;9.876;2022-07-25T00:26:38;13.40;;;9.18;;
56399;SDS011;42298;53.638;9.876;2022-07-25T00:29:03;13.00;;;9.48;;
56399;SDS011;42298;53.638;9.876;2022-07-25T00:31:29;12.60;;;9.27;;
56399;SDS011;42298;53.638;9.876;2022-07-25T00:33:54;15.15;;;9.48;;
56399;SDS011;42298;53.638;9.876;2022-07-25T00:36:20;11.98;;;8.18;;
56399;SDS011;42298;53.638;9.876;2022-07-25T00:38:45;12.15;;;8.70;;
56399;SDS011;42298;53.638;9.876;2022-07-25T00:41:10;12.73;;;8.75;;
56399;SDS011;42298;53.638;9.876;2022-07-25T00:43:36;12.82;;;9.00;;
56399;SDS011;42298;53.638;9.876;2022-07-25T00:46:01;14.27;;;9.80;;
56399;SDS011;42298;53.638;9.876;2022-07-25T00:48:27;14.63;;;9.43;;
56399;SDS011;42298;53.638;9.876;2022-07-25T00:50:54;12.73;;;9.35;;
56399;SDS011;42298;53.638;9.876;2022-07-25T00:53:20;14.25;;;8.63;;
56399;SDS011;42298;53.638;9.876;2022-07-25T00:55:46;12.60;;;8.57;;
56399;SDS011;42298;53.638;9.876;2022-07-25T00:58:11;14.23;;;8.52;;
56399;SDS011;42298;53.638;9.876;2022-07-25T01:00:37;13.27;;;8.13;;
56399;SDS011;42298;53.638;9.876;2022-07-25T01:03:02;14.00;;;8.68;;
56399;SDS011;42298;53.638;9.876;2022-07-25T01:05:28;14.13;;;8.38;;
56399;SDS011;42298;53.638;9.876;2022-07-25T01:07:53;12.50;;;8.18;;
56399;SDS011;42298;53.638;9.876;2022-07-25T01:10:19;12.00;;;7.82;;
56399;SDS011;42298;53.638;9.876;2022-07-25T01:13:02;12.15;;;7.97;;
56399;SDS011;42298;53.638;9.876;2022-07-25T01:15:27;11.35;;;7.65;;
56399;SDS011;42298;53.638;9.876;2022-07-25T01:17:53;12.68;;;8.00;;
56399;SDS011;42298;53.638;9.876;2022-07-25T01:20:19;10.95;;;7.10;;
56399;SDS011;42298;53.638;9.876;2022-07-25T01:22:46;11.52;;;7.75;;
56399;SDS011;42298;53.638;9.876;2022-07-25T01:25:12;11.52;;;7.20;;
56399;SDS011;42298;53.638;9.876;2022-07-25T01:27:39;11.02;;;7.47;;
56399;SDS011;42298;53.638;9.876;2022-07-25T01:30:05;11.50;;;7.38;;
56399;SDS011;42298;53.638;9.876;2022-07-25T01:32:32;12.85;;;7.80;;
56399;SDS011;42298;53.638;9.876;2022-07-25T01:34:58;11.02;;;7.20;;
56399;SDS011;42298;53.638;9.876;2022-07-25T01:37:24;10.35;;;7.00;;
56399;SDS011;42298;53.638;9.876;2022-07-25T01:39:49;10.73;;;7.25;;
56399;SDS011;42298;53.638;9.876;2022-07-25T01:42:15;10.77;;;7.40;;
56399;SDS011;42298;53.638;9.876;2022-07-25T01:44:40;11.95;;;7.28;;
56399;SDS011;42298;53.638;9.876;2022-07-25T01:47:05;11.90;;;7.18;;
56399;SDS011;42298;53.638;9.876;2022-07-25T01:49:30;10.70;;;6.90;;
56399;SDS011;42298;53.638;9.876;2022-07-25T01:51:56;12.35;;;7.03;;
56399;SDS011;42298;53.638;9.876;2022-07-25T01:54:21;12.23;;;7.45;;
56399;SDS011;42298;53.638;9.876;2022-07-25T01:56:46;10.93;;;7.00;;
56399;SDS011;42298;53.638;9.876;2022-07-25T01:59:12;11.27;;;6.78;;
56399;SDS011;42298;53.638;9.876;2022-07-25T02:01:37;9.63;;;6.68;;
56399;SDS011;42298;53.638;9.876;2022-07-25T02:04:02;12.05;;;6.93;;
56399;SDS011;42298;53.638;9.876;2022-07-25T02:06:27;10.57;;;6.30;;
56399;SDS011;42298;53.638;9.876;2022-07-25T02:08:53;9.75;;;5.70;;
56399;SDS011;42298;53.638;9.876;2022-07-25T02:11:18;9.18;;;6.15;;
56399;SDS011;42298;53.638;9.876;2022-07-25T02:13:44;10.35;;;5.97;;
56399;SDS011;42298;53.638;9.876;2022-07-25T02:16:09;12.23;;;6.55;;
56399;SDS011;42298;53.638;9.876;2022-07-25T02:18:35;10.35;;;6.13;;
56399;SDS011;42298;53.638;9.876;2022-07-25T02:21:00;10.90;;;5.70;;
56399;SDS011;42298;53.638;9.876;2022-07-25T02:23:26;8.82;;;5.85;;
56399;SDS011;42298;53.638;9.876;2022-07-25T02:25:51;10.40;;;5.70;;
56399;SDS011;42298;53.638;9.876;2022-07-25T02:28:16;10.23;;;5.75;;
56399;SDS011;42298;53.638;9.876;2022-07-25T02:30:42;12.80;;;5.65;;
56399;SDS011;42298;53.638;9.876;2022-07-25T02:33:07;10.25;;;5.40;;
56399;SDS011;42298;53.638;9.876;2022-07-25T02:35:32;9.82;;;5.18;;
56399;SDS011;42298;53.638;9.876;2022-07-25T02:37:58;8.40;;;5.43;;
56399;SDS011;42298;53.638;9.876;2022-07-25T02:40:23;8.30;;;5.15;;
56399;SDS011;42298;53.638;9.876;2022-07-25T02:42:49;8.50;;;4.93;;
56399;SDS011;42298;53.638;9.876;2022-07-25T02:45:14;6.97;;;4.60;;
56399;SDS011;42298;53.638;9.876;2022-07-25T02:47:39;9.48;;;4.82;;
56399;SDS011;42298;53.638;9.876;2022-07-25T02:50:05;10.65;;;5.57;;
56399;SDS011;42298;53.638;9.876;2022-07-25T02:52:31;9.85;;;5.55;;
56399;SDS011;42298;53.638;9.876;2022-07-25T02:54:56;7.75;;;5.07;;
56399;SDS011;42298;53.638;9.876;2022-07-25T02:57:22;8.35;;;5.07;;
56399;SDS011;42298;53.638;9.876;2022-07-25T02:59:47;10.75;;;5.30;;
56399;SDS011;42298;53.638;9.876;2022-07-25T03:02:12;7.65;;;5.05;;
56399;SDS011;42298;53.638;9.876;2022-07-25T03:04:37;9.90;;;5.53;;
56399;SDS011;42298;53.638;9.876;2022-07-25T03:07:03;10.52;;;5.25;;
56399;SDS011;42298;53.638;9.876;2022-07-25T03:09:28;10.32;;;5.18;;
56399;SDS011;42298;53.638;9.876;2022-07-25T03:11:53;10.23;;;4.93;;
56399;SDS011;42298;53.638;9.876;2022-07-25T03:14:18;9.55;;;5.00;;
56399;SDS011;42298;53.638;9.876;2022-07-25T03:16:44;7.88;;;5.18;;
56399;SDS011;42298;53.638;9.876;2022-07-25T03:19:09;9.80;;;5.32;;
56399;SDS011;42298;53.638;9.876;2022-07-25T03:21:36;11.07;;;5.28;;
56399;SDS011;42298;53.638;9.876;2022-07-25T03:24:03;8.85;;;4.57;;
56399;SDS011;42298;53.638;9.876;2022-07-25T03:26:29;9.93;;;5.30;;
56399;SDS011;42298;53.638;9.876;2022-07-25T03:28:54;8.55;;;4.80;;
56399;SDS011;42298;53.638;9.876;2022-07-25T03:31:20;9.05;;;5.43;;
56399;SDS011;42298;53.638;9.876;2022-07-25T03:33:45;8.77;;;4.95;;
56399;SDS011;42298;53.638;9.876;2022-07-25T03:36:10;8.70;;;5.30;;
56399;SDS011;42298;53.638;9.876;2022-07-25T03:38:36;7.82;;;4.45;;
56399;SDS011;42298;53.638;9.876;2022-07-25T03:41:01;9.23;;;4.90;;
56399;SDS011;42298;53.638;9.876;2022-07-25T03:43:26;8.98;;;4.72;;
56399;SDS011;42298;53.638;9.876;2022-07-25T03:45:52;9.05;;;5.22;;
56399;SDS011;42298;53.638;9.876;2022-07-25T03:48:17;9.80;;;5.50;;
56399;SDS011;42298;53.638;9.876;2022-07-25T03:50:42;7.95;;;4.90;;
56399;SDS011;42298;53.638;9.876;2022-07-25T03:53:08;9.50;;;4.90;;
56399;SDS011;42298;53.638;9.876;2022-07-25T03:55:33;8.73;;;4.78;;
56399;SDS011;42298;53.638;9.876;2022-07-25T03:57:58;10.98;;;4.90;;
56399;SDS011;42298;53.638;9.876;2022-07-25T04:00:24;8.95;;;5.13;;
56399;SDS011;42298;53.638;9.876;2022-07-25T04:02:49;8.38;;;5.07;;
56399;SDS011;42298;53.638;9.876;2022-07-25T04:05:14;8.85;;;4.57;;
56399;SDS011;42298;53.638;9.876;2022-07-25T04:07:40;10.43;;;5.07;;
56399;SDS011;42298;53.638;9.876;2022-07-25T04:10:05;7.60;;;4.70;;
56399;SDS011;42298;53.638;9.876;2022-07-25T04:12:31;9.68;;;4.95;;
56399;SDS011;42298;53.638;9.876;2022-07-25T04:14:57;7.95;;;4.70;;
56399;SDS011;42298;53.638;9.876;2022-07-25T04:17:22;8.35;;;4.40;;
56399;SDS011;42298;53.638;9.876;2022-07-25T04:19:48;8.32;;;4.90;;
56399;SDS011;42298;53.638;9.876;2022-07-25T04:22:13;9.55;;;4.80;;
56399;SDS011;42298;53.638;9.876;2022-07-25T04:24:39;10.25;;;4.57;;
56399;SDS011;42298;53.638;9.876;2022-07-25T04:27:04;8.43;;;4.78;;
56399;SDS011;42298;53.638;9.876;2022-07-25T04:29:29;9.48;;;4.75;;
56399;SDS011;42298;53.638;9.876;2022-07-25T04:31:55;7.15;;;4.10;;
56399;SDS011;42298;53.638;9.876;2022-07-25T04:34:20;6.93;;;4.40;;
56399;SDS011;42298;53.638;9.876;2022-07-25T04:36:45;7.47;;;4.57;;
56399;SDS011;42298;53.638;9.876;2022-07-25T04:39:11;6.90;;;4.10;;
56399;SDS011;42298;53.638;9.876;2022-07-25T04:41:36;7.28;;;4.10;;
56399;SDS011;42298;53.638;9.876;2022-07-25T04:44:02;8.30;;;4.25;;
56399;SDS011;42298;53.638;9.876;2022-07-25T04:46:27;8.63;;;4.45;;
56399;SDS011;42298;53.638;9.876;2022-07-25T04:48:52;7.95;;;4.47;;
56399;SDS011;42298;53.638;9.876;2022-07-25T04:51:18;7.18;;;3.90;;
56399;SDS011;42298;53.638;9.876;2022-07-25T04:53:44;7.20;;;4.18;;
56399;SDS011;42298;53.638;9.876;2022-07-25T04:56:10;8.15;;;4.15;;
56399;SDS011;42298;53.638;9.876;2022-07-25T04:58:35;8.23;;;4.20;;
56399;SDS011;42298;53.638;9.876;2022-07-25T05:01:00;9.15;;;4.30;;
56399;SDS011;42298;53.638;9.876;2022-07-25T05:03:26;9.18;;;3.92;;
56399;SDS011;42298;53.638;9.876;2022-07-25T05:05:51;9.95;;;4.30;;
56399;SDS011;42298;53.638;9.876;2022-07-25T05:08:17;7.15;;;4.38;;
56399;SDS011;42298;53.638;9.876;2022-07-25T05:10:42;6.97;;;4.35;;
56399;SDS011;42298;53.638;9.876;2022-07-25T05:13:07;7.63;;;4.28;;
56399;SDS011;42298;53.638;9.876;2022-07-25T05:15:33;8.77;;;4.00;;
56399;SDS011;42298;53.638;9.876;2022-07-25T05:17:59;6.82;;;3.85;;
56399;SDS011;42298;53.638;9.876;2022-07-25T05:20:24;7.10;;;4.13;;
56399;SDS011;42298;53.638;9.876;2022-07-25T05:22:49;6.97;;;4.25;;
56399;SDS011;42298;53.638;9.876;2022-07-25T05:25:15;8.50;;;4.20;;
56399;SDS011;42298;53.638;9.876;2022-07-25T05:27:43;8.52;;;4.00;;
56399;SDS011;42298;53.638;9.876;2022-07-25T05:30:09;8.63;;;3.47;;
56399;SDS011;42298;53.638;9.876;2022-07-25T05:32:36;8.40;;;4.00;;
56399;SDS011;42298;53.638;9.876;2022-07-25T05:35:02;7.78;;;4.20;;
56399;SDS011;42298;53.638;9.876;2022-07-25T05:37:28;7.95;;;4.03;;
56399;SDS011;42298;53.638;9.876;2022-07-25T05:39:54;9.90;;;4.00;;
56399;SDS011;42298;53.638;9.876;2022-07-25T05:42:19;7.88;;;4.35;;
56399;SDS011;42298;53.638;9.876;2022-07-25T05:44:44;7.68;;;3.70;;
56399;SDS011;42298;53.638;9.876;2022-07-25T05:47:10;8.02;;;4.00;;
56399;SDS011;42298;53.638;9.876;2022-07-25T05:49:36;8.85;;;3.67;;
56399;SDS011;42298;53.638;9.876;2022-07-25T05:52:02;11.25;;;4.18;;
56399;SDS011;42298;53.638;9.876;2022-07-25T05:54:28;6.82;;;4.20;;
56399;SDS011;42298;53.638;9.876;2022-07-25T05:56:53;8.30;;;3.90;;
56399;SDS011;42298;53.638;9.876;2022-07-25T05:59:18;8.98;;;4.25;;
56399;SDS011;42298;53.638;9.876;2022-07-25T06:01:44;7.55;;;4.38;;
56399;SDS011;42298;53.638;9.876;2022-07-25T06:04:09;9.73;;;3.90;;
56399;SDS011;42298;53.638;9.876;2022-07-25T06:06:35;8.55;;;4.53;;
56399;SDS011;42298;53.638;9.876;2022-07-25T06:09:00;8.50;;;3.95;;
56399;SDS011;42298;53.638;9.876;2022-07-25T06:11:26;11.77;;;4.25;;
56399;SDS011;42298;53.638;9.876;2022-07-25T06:13:52;9.45;;;4.20;;
56399;SDS011;42298;53.638;9.876;2022-07-25T06:16:18;7.65;;;4.03;;
56399;SDS011;42298;53.638;9.876;2022-07-25T06:18:43;10.82;;;4.32;;
56399;SDS011;42298;53.638;9.876;2022-07-25T06:21:08;9.18;;;3.90;;
56399;SDS011;42298;53.638;9.876;2022-07-25T06:23:34;8.60;;;3.88;;
56399;SDS011;42298;53.638;9.876;2022-07-25T06:25:59;8.63;;;3.80;;
56399;SDS011;42298;53.638;9.876;2022-07-25T06:28:24;8.07;;;3.78;;
56399;SDS011;42298;53.638;9.876;2022-07-25T06:30:49;7.00;;;4.20;;
56399;SDS011;42298;53.638;9.876;2022-07-25T06:33:15;8.43;;;3.53;;
56399;SDS011;42298;53.638;9.876;2022-07-25T06:35:40;7.32;;;3.45;;
56399;SDS011;42298;53.638;9.876;2022-07-25T06:38:05;7.68;;;3.85;;
56399;SDS011;42298;53.638;9.876;2022-07-25T06:40:31;8.27;;;4.07;;
56399;SDS011;42298;53.638;9.876;2022-07-25T06:42:56;7.72;;;3.85;;
56399;SDS011;42298;53.638;9.876;2022-07-25T06:45:21;11.43;;;4.57;;
56399;SDS011;42298;53.638;9.876;2022-07-25T06:47:47;7.40;;;3.97;;
56399;SDS011;42298;53.638;9.876;2022-07-25T06:50:14;11.18;;;4.18;;
56399;SDS011;42298;53.638;9.876;2022-07-25T06:52:44;7.28;;;3.83;;
56399;SDS011;42298;53.638;9.876;2022-07-25T06:55:11;10.77;;;4.53;;
56399;SDS011;42298;53.638;9.876;2022-07-25T06:57:38;9.13;;;4.30;;
56399;SDS011;42298;53.638;9.876;2022-07-25T07:00:05;8.77;;;3.97;;
56399;SDS011;42298;53.638;9.876;2022-07-25T07:02:34;9.75;;;4.30;;
56399;SDS011;42298;53.638;9.876;2022-07-25T07:04:59;8.68;;;3.70;;
56399;SDS011;42298;53.638;9.876;2022-07-25T07:07:25;8.30;;;4.28;;
56399;SDS011;42298;53.638;9.876;2022-07-25T07:09:50;7.80;;;3.85;;
56399;SDS011;42298;53.638;9.876;2022-07-25T07:12:15;9.07;;;4.25;;
56399;SDS011;42298;53.638;9.876;2022-07-25T07:14:40;11.15;;;4.03;;
56399;SDS011;42298;53.638;9.876;2022-07-25T07:17:08;9.52;;;3.85;;
56399;SDS011;42298;53.638;9.876;2022-07-25T07:19:33;10.25;;;4.32;;
56399;SDS011;42298;53.638;9.876;2022-07-25T07:21:58;11.07;;;4.47;;
56399;SDS011;42298;53.638;9.876;2022-07-25T07:24:24;9.02;;;4.30;;
56399;SDS011;42298;53.638;9.876;2022-07-25T07:26:49;9.18;;;4.50;;
56399;SDS011;42298;53.638;9.876;2022-07-25T07:29:15;9.90;;;4.40;;
56399;SDS011;42298;53.638;9.876;2022-07-25T07:31:40;10.77;;;4.32;;
56399;SDS011;42298;53.638;9.876;2022-07-25T07:34:05;7.78;;;4.03;;
56399;SDS011;42298;53.638;9.876;2022-07-25T07:36:31;8.98;;;4.05;;
56399;SDS011;42298;53.638;9.876;2022-07-25T07:38:56;9.25;;;4.35;;
56399;SDS011;42298;53.638;9.876;2022-07-25T07:41:22;9.77;;;4.47;;
56399;SDS011;42298;53.638;9.876;2022-07-25T07:43:47;11.43;;;4.75;;
56399;SDS011;42298;53.638;9.876;2022-07-25T07:46:13;8.95;;;4.47;;
56399;SDS011;42298;53.638;9.876;2022-07-25T07:48:38;10.13;;;4.80;;
56399;SDS011;42298;53.638;9.876;2022-07-25T07:51:04;7.47;;;4.47;;
56399;SDS011;42298;53.638;9.876;2022-07-25T07:53:29;10.45;;;5.03;;
56399;SDS011;42298;53.638;9.876;2022-07-25T07:56:15;8.45;;;4.55;;
56399;SDS011;42298;53.638;9.876;2022-07-25T07:58:40;10.43;;;5.00;;
56399;SDS011;42298;53.638;9.876;2022-07-25T08:01:06;12.00;;;5.00;;
56399;SDS011;42298;53.638;9.876;2022-07-25T08:03:31;8.45;;;4.50;;
56399;SDS011;42298;53.638;9.876;2022-07-25T08:05:57;6.43;;;4.47;;
56399;SDS011;42298;53.638;9.876;2022-07-25T08:08:25;6.90;;;4.40;;
56399;SDS011;42298;53.638;9.876;2022-07-25T08:10:51;7.65;;;4.63;;
56399;SDS011;42298;53.638;9.876;2022-07-25T08:13:17;7.95;;;4.85;;
56399;SDS011;42298;53.638;9.876;2022-07-25T08:15:46;7.50;;;4.90;;
56399;SDS011;42298;53.638;9.876;2022-07-25T08:18:13;9.45;;;4.60;;
56399;SDS011;42298;53.638;9.876;2022-07-25T08:20:39;7.95;;;4.70;;
56399;SDS011;42298;53.638;9.876;2022-07-25T08:23:05;8.38;;;4.80;;
56399;SDS011;42298;53.638;9.876;2022-07-25T08:25:31;9.23;;;5.40;;
56399;SDS011;42298;53.638;9.876;2022-07-25T08:27:57;7.00;;;4.78;;
56399;SDS011;42298;53.638;9.876;2022-07-25T08:30:23;8.85;;;4.82;;
56399;SDS011;42298;53.638;9.876;2022-07-25T08:32:49;8.85;;;4.90;;
56399;SDS011;42298;53.638;9.876;2022-07-25T08:35:20;8.45;;;4.65;;
56399;SDS011;42298;53.638;9.876;2022-07-25T08:37:47;6.32;;;4.65;;
56399;SDS011;42298;53.638;9.876;2022-07-25T08:40:13;8.77;;;5.32;;
56399;SDS011;42298;53.638;9.876;2022-07-25T08:42:40;8.00;;;4.95;;
56399;SDS011;42298;53.638;9.876;2022-07-25T08:45:07;8.15;;;4.40;;
56399;SDS011;42298;53.638;9.876;2022-07-25T08:47:35;11.57;;;5.13;;
56399;SDS011;42298;53.638;9.876;2022-07-25T08:50:01;12.10;;;4.85;;
56399;SDS011;42298;53.638;9.876;2022-07-25T08:52:31;7.63;;;5.03;;
56399;SDS011;42298;53.638;9.876;2022-07-25T08:54:59;9.18;;;5.00;;
56399;SDS011;42298;53.638;9.876;2022-07-25T08:57:26;6.60;;;4.70;;
56399;SDS011;42298;53.638;9.876;2022-07-25T08:59:52;9.45;;;4.70;;
56399;SDS011;42298;53.638;9.876;2022-07-25T09:02:17;8.52;;;4.93;;
56399;SDS011;42298;53.638;9.876;2022-07-25T09:04:42;7.63;;;4.70;;
56399;SDS011;42298;53.638;9.876;2022-07-25T09:07:08;9.13;;;4.90;;
56399;SDS011;42298;53.638;9.876;2022-07-25T09:09:34;10.48;;;5.28;;
56399;SDS011;42298;53.638;9.876;2022-07-25T09:12:02;8.52;;;5.05;;
56399;SDS011;42298;53.638;9.876;2022-07-25T09:14:28;8.20;;;4.70;;
56399;SDS011;42298;53.638;9.876;2022-07-25T09:16:54;8.43;;;4.75;;
56399;SDS011;42298;53.638;9.876;2022-07-25T09:19:20;9.05;;;5.10;;
56399;SDS011;42298;53.638;9.876;2022-07-25T09:22:01;8.48;;;4.72;;
56399;SDS011;42298;53.638;9.876;2022-07-25T09:24:27;7.72;;;4.93;;
56399;SDS011;42298;53.638;9.876;2022-07-25T09:26:54;9.35;;;5.10;;
56399;SDS011;42298;53.638;9.876;2022-07-25T09:29:26;8.57;;;4.82;;
56399;SDS011;42298;53.638;9.876;2022-07-25T09:31:57;7.97;;;5.00;;
56399;SDS011;42298;53.638;9.876;2022-07-25T09:36:55;6.90;;;4.75;;
56399;SDS011;42298;53.638;9.876;2022-07-25T09:39:31;7.43;;;4.53;;
56399;SDS011;42298;53.638;9.876;2022-07-25T09:42:17;6.88;;;5.00;;
56399;SDS011;42298;53.638;9.876;2022-07-25T09:44:42;8.60;;;5.38;;
56399;SDS011;42298;53.638;9.876;2022-07-25T09:47:09;9.18;;;5.03;;
56399;SDS011;42298;53.638;9.876;2022-07-25T09:49:39;8.15;;;4.75;;
56399;SDS011;42298;53.638;9.876;2022-07-25T09:52:05;8.45;;;5.10;;
56399;SDS011;42298;53.638;9.876;2022-07-25T09:54:31;7.78;;;4.68;;
56399;SDS011;42298;53.638;9.876;2022-07-25T09:56:57;10.35;;;5.53;;
56399;SDS011;42298;53.638;9.876;2022-07-25T09:59:22;7.63;;;4.82;;
56399;SDS011;42298;53.638;9.876;2022-07-25T10:01:50;9.07;;;5.22;;
56399;SDS011;42298;53.638;9.876;2022-07-25T10:04:38;8.90;;;5.25;;
56399;SDS011;42298;53.638;9.876;2022-07-25T10:07:11;8.85;;;5.38;;
56399;SDS011;42298;53.638;9.876;2022-07-25T10:09:47;8.90;;;4.95;;
56399;SDS011;42298;53.638;9.876;2022-07-25T10:12:17;7.55;;;5.13;;
56399;SDS011;42298;53.638;9.876;2022-07-25T10:15:02;6.88;;;4.55;;
56399;SDS011;42298;53.638;9.876;2022-07-25T10:17:35;8.90;;;5.22;;
56399;SDS011;42298;53.638;9.876;2022-07-25T10:20:02;10.98;;;5.43;;
56399;SDS011;42298;53.638;9.876;2022-07-25T10:25:33;8.93;;;5.22;;
56399;SDS011;42298;53.638;9.876;2022-07-25T10:27:59;10.52;;;5.20;;
56399;SDS011;42298;53.638;9.876;2022-07-25T10:30:33;7.95;;;4.72;;
56399;SDS011;42298;53.638;9.876;2022-07-25T10:33:17;8.63;;;5.20;;
56399;SDS011;42298;53.638;9.876;2022-07-25T10:35:45;8.40;;;4.90;;
56399;SDS011;42298;53.638;9.876;2022-07-25T10:38:10;9.32;;;5.60;;
56399;SDS011;42298;53.638;9.876;2022-07-25T10:40:37;8.93;;;4.47;;
56399;SDS011;42298;53.638;9.876;2022-07-25T10:43:07;8.40;;;5.15;;
56399;SDS011;42298;53.638;9.876;2022-07-25T10:45:37;7.53;;;5.20;;
56399;SDS011;42298;53.638;9.876;2022-07-25T10:48:05;9.80;;;5.72;;
56399;SDS011;42298;53.638;9.876;2022-07-25T10:50:32;9.88;;;5.30;;
56399;SDS011;42298;53.638;9.876;2022-07-25T10:52:57;8.10;;;5.30;;
56399;SDS011;42298;53.638;9.876;2022-07-25T10:55:31;8.40;;;5.10;;
56399;SDS011;42298;53.638;9.876;2022-07-25T10:58:00;9.20;;;5.18;;
56399;SDS011;42298;53.638;9.876;2022-07-25T11:00:27;7.65;;;5.32;;
56399;SDS011;42298;53.638;9.876;2022-07-25T11:02:54;7.93;;;5.00;;
56399;SDS011;42298;53.638;9.876;2022-07-25T11:05:21;9.00;;;5.38;;
56399;SDS011;42298;53.638;9.876;2022-07-25T11:07:49;8.98;;;5.40;;
56399;SDS011;42298;53.638;9.876;2022-07-25T11:10:23;9.20;;;5.72;;
56399;SDS011;42298;53.638;9.876;2022-07-25T11:12:50;8.63;;;5.47;;
56399;SDS011;42298;53.638;9.876;2022-07-25T11:15:15;8.77;;;5.60;;
56399;SDS011;42298;53.638;9.876;2022-07-25T11:17:50;8.75;;;4.97;;
56399;SDS011;42298;53.638;9.876;2022-07-25T11:20:16;8.02;;;5.20;;
56399;SDS011;42298;53.638;9.876;2022-07-25T11:22:49;7.45;;;4.88;;
56399;SDS011;42298;53.638;9.876;2022-07-25T11:25:16;11.00;;;5.38;;
56399;SDS011;42298;53.638;9.876;2022-07-25T11:27:41;8.30;;;5.70;;
56399;SDS011;42298;53.638;9.876;2022-07-25T11:30:11;7.75;;;5.30;;
56399;SDS011;42298;53.638;9.876;2022-07-25T11:32:45;7.28;;;5.13;;
56399;SDS011;42298;53.638;9.876;2022-07-25T11:35:16;7.82;;;5.25;;
56399;SDS011;42298;53.638;9.876;2022-07-25T11:37:45;7.47;;;5.18;;
56399;SDS011;42298;53.638;9.876;2022-07-25T11:40:13;10.10;;;5.30;;
56399;SDS011;42298;53.638;9.876;2022-07-25T11:42:44;7.63;;;4.90;;
56399;SDS011;42298;53.638;9.876;2022-07-25T11:45:31;7.20;;;5.10;;
56399;SDS011;42298;53.638;9.876;2022-07-25T11:48:04;10.32;;;5.50;;
56399;SDS011;42298;53.638;9.876;2022-07-25T11:50:40;9.02;;;5.47;;
56399;SDS011;42298;53.638;9.876;2022-07-25T11:53:08;8.25;;;5.50;;
56399;SDS011;42298;53.638;9.876;2022-07-25T11:55:36;10.05;;;5.30;;
56399;SDS011;42298;53.638;9.876;2022-07-25T11:58:04;8.02;;;5.25;;
56399;SDS011;42298;53.638;9.876;2022-07-25T12:00:32;8.75;;;5.05;;
56399;SDS011;42298;53.638;9.876;2022-07-25T12:03:12;9.65;;;5.38;;
56399;SDS011;42298;53.638;9.876;2022-07-25T12:05:39;9.55;;;4.47;;
56399;SDS011;42298;53.638;9.876;2022-07-25T12:10:36;7.43;;;5.28;;
56399;SDS011;42298;53.638;9.876;2022-07-25T12:13:02;8.00;;;5.00;;
56399;SDS011;42298;53.638;9.876;2022-07-25T12:15:32;8.23;;;5.25;;
56399;SDS011;42298;53.638;9.876;2022-07-25T12:18:00;7.70;;;5.40;;
56399;SDS011;42298;53.638;9.876;2022-07-25T12:20:30;8.15;;;5.13;;
56399;SDS011;42298;53.638;9.876;2022-07-25T12:22:59;8.63;;;5.20;;
56399;SDS011;42298;53.638;9.876;2022-07-25T12:25:26;8.73;;;4.70;;
56399;SDS011;42298;53.638;9.876;2022-07-25T12:27:53;7.78;;;4.70;;
56399;SDS011;42298;53.638;9.876;2022-07-25T12:30:19;7.45;;;5.35;;
56399;SDS011;42298;53.638;9.876;2022-07-25T12:32:45;9.85;;;5.20;;
56399;SDS011;42298;53.638;9.876;2022-07-25T12:35:11;9.75;;;4.93;;
56399;SDS011;42298;53.638;9.876;2022-07-25T12:37:39;8.75;;;4.97;;
56399;SDS011;42298;53.638;9.876;2022-07-25T12:40:06;8.88;;;5.13;;
56399;SDS011;42298;53.638;9.876;2022-07-25T12:42:32;8.25;;;5.38;;
56399;SDS011;42298;53.638;9.876;2022-07-25T12:44:58;8.13;;;4.82;;
56399;SDS011;42298;53.638;9.876;2022-07-25T12:47:24;8.30;;;4.60;;
56399;SDS011;42298;53.638;9.876;2022-07-25T12:49:51;10.20;;;5.05;;
56399;SDS011;42298;53.638;9.876;2022-07-25T12:52:17;8.15;;;5.25;;
56399;SDS011;42298;53.638;9.876;2022-07-25T12:54:42;9.85;;;5.30;;
56399;SDS011;42298;53.638;9.876;2022-07-25T12:57:11;6.82;;;4.95;;
56399;SDS011;42298;53.638;9.876;2022-07-25T12:59:37;7.53;;;4.78;;
56399;SDS011;42298;53.638;9.876;2022-07-25T13:02:03;9.23;;;5.28;;
56399;SDS011;42298;53.638;9.876;2022-07-25T13:04:29;6.60;;;4.78;;
56399;SDS011;42298;53.638;9.876;2022-07-25T13:06:55;8.40;;;5.05;;
56399;SDS011;42298;53.638;9.876;2022-07-25T13:09:21;9.68;;;5.50;;
56399;SDS011;42298;53.638;9.876;2022-07-25T13:11:46;8.52;;;5.25;;
56399;SDS011;42298;53.638;9.876;2022-07-25T13:14:12;9.38;;;5.07;;
56399;SDS011;42298;53.638;9.876;2022-07-25T13:16:49;7.70;;;4.78;;
56399;SDS011;42298;53.638;9.876;2022-07-25T13:19:18;9.32;;;5.03;;
56399;SDS011;42298;53.638;9.876;2022-07-25T13:21:43;8.05;;;5.32;;
56399;SDS011;42298;53.638;9.876;2022-07-25T13:24:09;10.40;;;4.93;;
56399;SDS011;42298;53.638;9.876;2022-07-25T13:26:36;8.45;;;5.15;;
56399;SDS011;42298;53.638;9.876;2022-07-25T13:29:02;8.82;;;5.30;;
56399;SDS011;42298;53.638;9.876;2022-07-25T13:31:38;11.13;;;4.43;;
56399;SDS011;42298;53.638;9.876;2022-07-25T13:34:06;8.57;;;5.15;;
56399;SDS011;42298;53.638;9.876;2022-07-25T13:36:38;8.18;;;4.68;;
56399;SDS011;42298;53.638;9.876;2022-07-25T13:39:08;7.75;;;5.00;;
56399;SDS011;42298;53.638;9.876;2022-07-25T13:41:36;9.40;;;5.50;;
56399;SDS011;42298;53.638;9.876;2022-07-25T13:44:03;12.40;;;5.20;;
56399;SDS011;42298;53.638;9.876;2022-07-25T13:46:32;9.70;;;5.57;;
56399;SDS011;42298;53.638;9.876;2022-07-25T13:49:15;9.02;;;5.40;;
56399;SDS011;42298;53.638;9.876;2022-07-25T13:51:57;9.45;;;5.30;;
56399;SDS011;42298;53.638;9.876;2022-07-25T13:54:38;10.07;;;5.43;;
56399;SDS011;42298;53.638;9.876;2022-07-25T13:57:27;8.38;;;5.53;;
56399;SDS011;42298;53.638;9.876;2022-07-25T14:00:14;13.10;;;7.03;;
56399;SDS011;42298;53.638;9.876;2022-07-25T14:02:42;14.48;;;6.15;;
56399;SDS011;42298;53.638;9.876;2022-07-25T14:05:27;10.23;;;6.47;;
56399;SDS011;42298;53.638;9.876;2022-07-25T14:07:54;10.88;;;6.13;;
56399;SDS011;42298;53.638;9.876;2022-07-25T14:10:29;11.23;;;5.75;;
56399;SDS011;42298;53.638;9.876;2022-07-25T14:13:00;12.65;;;6.45;;
56399;SDS011;42298;53.638;9.876;2022-07-25T14:15:32;10.05;;;5.75;;
56399;SDS011;42298;53.638;9.876;2022-07-25T14:17:57;9.73;;;5.63;;
56399;SDS011;42298;53.638;9.876;2022-07-25T14:20:23;13.57;;;6.50;;
56399;SDS011;42298;53.638;9.876;2022-07-25T14:22:48;11.15;;;5.88;;
56399;SDS011;42298;53.638;9.876;2022-07-25T14:25:14;11.07;;;5.60;;
56399;SDS011;42298;53.638;9.876;2022-07-25T14:27:39;11.55;;;5.28;;
56399;SDS011;42298;53.638;9.876;2022-07-25T14:30:05;12.02;;;4.60;;
56399;SDS011;42298;53.638;9.876;2022-07-25T14:32:33;7.88;;;4.63;;
56399;SDS011;42298;53.638;9.876;2022-07-25T14:34:58;10.90;;;4.63;;
56399;SDS011;42298;53.638;9.876;2022-07-25T14:37:25;8.35;;;4.82;;
56399;SDS011;42298;53.638;9.876;2022-07-25T14:39:51;10.35;;;4.47;;
56399;SDS011;42298;53.638;9.876;2022-07-25T14:42:16;9.60;;;4.70;;
56399;SDS011;42298;53.638;9.876;2022-07-25T14:44:42;9.20;;;4.10;;
56399;SDS011;42298;53.638;9.876;2022-07-25T14:47:07;9.18;;;4.38;;
56399;SDS011;42298;53.638;9.876;2022-07-25T14:49:33;7.35;;;4.00;;
56399;SDS011;42298;53.638;9.876;2022-07-25T14:51:58;8.77;;;4.10;;